sensor_id;sensor_type;location;lat;lon;timestamp;temperature;humidity
59572;DHT22;59406;45.602;11.904;2023-03-01T00:01:59;4.10;76.60
59572;DHT22;59406;45.602;11.904;2023-03-01T00:04:25;4.10;76.50
59572;DHT22;59406;45.602;11.904;2023-03-01T00:06:51;3.90;76.70
59572;DHT22;59406;45.602;11.904;2023-03-01T00:09:17;4.10;76.60
59572;DHT22;59406;45.602;11.904;2023-03-01T00:11:44;4.30;76.80
59572;DHT22;59406;45.602;11.904;2023-03-01T00:14:10;4.00;76.70
59572;DHT22;59406;45.602;11.904;2023-03-01T00:16:39;4.20;76.40
59572;DHT22;59406;45.602;11.904;2023-03-01T00:19:06;4.20;76.60
59572;DHT22;59406;45.602;11.904;2023-03-01T00:21:33;4.00;76.60
59572;DHT22;59406;45.602;11.904;2023-03-01T00:24:01;4.20;76.50
59572;DHT22;59406;45.602;11.904;2023-03-01T00:26:27;4.10;76.40
59572;DHT22;59406;45.602;11.904;2023-03-01T00:28:54;3.90;76.40
59572;DHT22;59406;45.602;11.904;2023-03-01T00:31:24;4.00;76.60
59572;DHT22;59406;45.602;11.904;2023-03-01T00:33:55;3.90;76.20
59572;DHT22;59406;45.602;11.904;2023-03-01T00:36:24;3.90;76.50
59572;DHT22;59406;45.602;11.904;2023-03-01T00:38:50;3.70;76.80
59572;DHT22;59406;45.602;11.904;2023-03-01T00:41:18;4.00;77.00
59572;DHT22;59406;45.602;11.904;2023-03-01T00:43:44;3.80;77.00
59572;DHT22;59406;45.602;11.904;2023-03-01T00:46:15;3.90;77.20
59572;DHT22;59406;45.602;11.904;2023-03-01T00:48:42;3.90;77.10
59572;DHT22;59406;45.602;11.904;2023-03-01T00:51:20;3.70;77.20
59572;DHT22;59406;45.602;11.904;2023-03-01T00:53:47;4.10;77.10
59572;DHT22;59406;45.602;11.904;2023-03-01T00:56:15;4.20;77.20
59572;DHT22;59406;45.602;11.904;2023-03-01T00:58:41;4.00;76.70
59572;DHT22;59406;45.602;11.904;2023-03-01T01:01:19;4.30;77.10
59572;DHT22;59406;45.602;11.904;2023-03-01T01:06:15;4.30;76.80
59572;DHT22;59406;45.602;11.904;2023-03-01T01:08:41;4.30;77.00
59572;DHT22;59406;45.602;11.904;2023-03-01T01:11:09;4.30;76.70
59572;DHT22;59406;45.602;11.904;2023-03-01T01:13:36;4.10;77.20
59572;DHT22;59406;45.602;11.904;2023-03-01T01:16:02;4.20;77.00
59572;DHT22;59406;45.602;11.904;2023-03-01T01:18:28;4.00;76.90
59572;DHT22;59406;45.602;11.904;2023-03-01T01:20:53;4.00;76.70
59572;DHT22;59406;45.602;11.904;2023-03-01T01:23:19;3.80;76.90
59572;DHT22;59406;45.602;11.904;2023-03-01T01:25:45;4.10;77.00
59572;DHT22;59406;45.602;11.904;2023-03-01T01:28:12;4.10;76.90
59572;DHT22;59406;45.602;11.904;2023-03-01T01:30:37;4.20;77.20
59572;DHT22;59406;45.602;11.904;2023-03-01T01:33:03;4.00;77.00
59572;DHT22;59406;45.602;11.904;2023-03-01T01:35:29;4.20;76.80
59572;DHT22;59406;45.602;11.904;2023-03-01T01:37:55;4.30;76.80
59572;DHT22;59406;45.602;11.904;2023-03-01T01:40:21;4.10;77.00
59572;DHT22;59406;45.602;11.904;2023-03-01T01:42:46;4.30;76.80
59572;DHT22;59406;45.602;11.904;2023-03-01T01:45:33;4.30;76.80
59572;DHT22;59406;45.602;11.904;2023-03-01T01:48:07;4.30;76.80
59572;DHT22;59406;45.602;11.904;2023-03-01T01:50:36;4.40;76.70
59572;DHT22;59406;45.602;11.904;2023-03-01T01:53:08;4.50;76.60
59572;DHT22;59406;45.602;11.904;2023-03-01T01:55:36;4.40;76.80
59572;DHT22;59406;45.602;11.904;2023-03-01T01:58:04;4.40;76.70
59572;DHT22;59406;45.602;11.904;2023-03-01T02:00:31;4.40;76.70
59572;DHT22;59406;45.602;11.904;2023-03-01T02:03:03;4.40;76.90
59572;DHT22;59406;45.602;11.904;2023-03-01T02:05:53;4.50;76.70
59572;DHT22;59406;45.602;11.904;2023-03-01T02:08:22;4.40;76.90
59572;DHT22;59406;45.602;11.904;2023-03-01T02:10:49;4.60;76.90
59572;DHT22;59406;45.602;11.904;2023-03-01T02:13:16;4.50;76.90
59572;DHT22;59406;45.602;11.904;2023-03-01T02:15:42;4.40;77.00
59572;DHT22;59406;45.602;11.904;2023-03-01T02:18:10;4.50;77.20
59572;DHT22;59406;45.602;11.904;2023-03-01T02:23:29;4.50;77.10
59572;DHT22;59406;45.602;11.904;2023-03-01T02:26:00;4.60;77.30
59572;DHT22;59406;45.602;11.904;2023-03-01T02:28:36;4.50;76.90
59572;DHT22;59406;45.602;11.904;2023-03-01T02:31:04;4.50;77.20
59572;DHT22;59406;45.602;11.904;2023-03-01T02:33:49;4.50;77.10
59572;DHT22;59406;45.602;11.904;2023-03-01T02:36:23;4.50;77.10
59572;DHT22;59406;45.602;11.904;2023-03-01T02:38:53;4.50;77.00
59572;DHT22;59406;45.602;11.904;2023-03-01T02:41:22;4.60;77.00
59572;DHT22;59406;45.602;11.904;2023-03-01T02:43:48;4.60;77.00
59572;DHT22;59406;45.602;11.904;2023-03-01T02:46:23;4.60;76.90
59572;DHT22;59406;45.602;11.904;2023-03-01T02:48:51;4.80;76.90
59572;DHT22;59406;45.602;11.904;2023-03-01T02:54:23;5.00;76.80
59572;DHT22;59406;45.602;11.904;2023-03-01T02:56:51;4.80;76.80
59572;DHT22;59406;45.602;11.904;2023-03-01T02:59:22;5.00;76.60
59572;DHT22;59406;45.602;11.904;2023-03-01T03:01:48;5.20;76.60
59572;DHT22;59406;45.602;11.904;2023-03-01T03:04:16;5.00;76.70
59572;DHT22;59406;45.602;11.904;2023-03-01T03:06:47;5.10;76.80
59572;DHT22;59406;45.602;11.904;2023-03-01T03:09:15;5.00;76.70
59572;DHT22;59406;45.602;11.904;2023-03-01T03:11:41;5.00;76.60
59572;DHT22;59406;45.602;11.904;2023-03-01T03:14:10;5.10;76.60
59572;DHT22;59406;45.602;11.904;2023-03-01T03:16:50;5.10;76.90
59572;DHT22;59406;45.602;11.904;2023-03-01T03:19:18;5.10;76.90
59572;DHT22;59406;45.602;11.904;2023-03-01T03:21:44;5.10;77.00
59572;DHT22;59406;45.602;11.904;2023-03-01T03:24:10;4.90;76.70
59572;DHT22;59406;45.602;11.904;2023-03-01T03:26:36;5.10;76.80
59572;DHT22;59406;45.602;11.904;2023-03-01T03:29:02;4.90;77.00
59572;DHT22;59406;45.602;11.904;2023-03-01T03:31:28;5.00;76.80
59572;DHT22;59406;45.602;11.904;2023-03-01T03:33:54;4.90;76.60
59572;DHT22;59406;45.602;11.904;2023-03-01T03:36:23;4.90;76.80
59572;DHT22;59406;45.602;11.904;2023-03-01T03:38:55;4.80;76.80
59572;DHT22;59406;45.602;11.904;2023-03-01T03:41:21;4.70;77.00
59572;DHT22;59406;45.602;11.904;2023-03-01T03:43:47;4.60;77.20
59572;DHT22;59406;45.602;11.904;2023-03-01T03:46:14;4.50;77.20
59572;DHT22;59406;45.602;11.904;2023-03-01T03:48:42;4.30;77.00
59572;DHT22;59406;45.602;11.904;2023-03-01T03:51:17;4.50;77.00
59572;DHT22;59406;45.602;11.904;2023-03-01T03:53:43;4.30;77.00
59572;DHT22;59406;45.602;11.904;2023-03-01T03:56:09;4.40;77.10
59572;DHT22;59406;45.602;11.904;2023-03-01T03:58:35;4.50;77.40
59572;DHT22;59406;45.602;11.904;2023-03-01T04:01:02;4.30;77.30
59572;DHT22;59406;45.602;11.904;2023-03-01T04:03:29;4.20;77.40
59572;DHT22;59406;45.602;11.904;2023-03-01T04:05:58;4.10;77.40
59572;DHT22;59406;45.602;11.904;2023-03-01T04:08:25;4.20;77.50
59572;DHT22;59406;45.602;11.904;2023-03-01T04:10:55;4.10;77.80
59572;DHT22;59406;45.602;11.904;2023-03-01T04:13:23;3.80;78.30
59572;DHT22;59406;45.602;11.904;2023-03-01T04:15:52;3.90;78.30
59572;DHT22;59406;45.602;11.904;2023-03-01T04:18:20;3.90;78.10
59572;DHT22;59406;45.602;11.904;2023-03-01T04:20:47;3.80;78.50
59572;DHT22;59406;45.602;11.904;2023-03-01T04:23:18;4.00;78.30
59572;DHT22;59406;45.602;11.904;2023-03-01T04:25:56;3.80;77.90
59572;DHT22;59406;45.602;11.904;2023-03-01T04:30:55;4.20;77.90
59572;DHT22;59406;45.602;11.904;2023-03-01T04:33:23;4.20;78.20
59572;DHT22;59406;45.602;11.904;2023-03-01T04:35:50;4.20;77.80
59572;DHT22;59406;45.602;11.904;2023-03-01T04:38:17;4.30;78.10
59572;DHT22;59406;45.602;11.904;2023-03-01T04:40:43;4.40;78.10
59572;DHT22;59406;45.602;11.904;2023-03-01T04:43:11;4.30;77.70
59572;DHT22;59406;45.602;11.904;2023-03-01T04:45:39;4.20;77.70
59572;DHT22;59406;45.602;11.904;2023-03-01T04:48:05;4.40;78.20
59572;DHT22;59406;45.602;11.904;2023-03-01T04:50:31;4.40;77.70
59572;DHT22;59406;45.602;11.904;2023-03-01T04:52:57;4.30;77.70
59572;DHT22;59406;45.602;11.904;2023-03-01T04:55:27;4.40;77.90
59572;DHT22;59406;45.602;11.904;2023-03-01T04:57:54;4.30;77.80
59572;DHT22;59406;45.602;11.904;2023-03-01T05:00:20;4.50;77.70
59572;DHT22;59406;45.602;11.904;2023-03-01T05:02:52;4.60;77.50
59572;DHT22;59406;45.602;11.904;2023-03-01T05:05:48;4.70;77.50
59572;DHT22;59406;45.602;11.904;2023-03-01T05:08:15;4.70;77.70
59572;DHT22;59406;45.602;11.904;2023-03-01T05:10:53;4.90;77.50
59572;DHT22;59406;45.602;11.904;2023-03-01T05:13:20;4.90;77.60
59572;DHT22;59406;45.602;11.904;2023-03-01T05:16:00;5.00;77.40
59572;DHT22;59406;45.602;11.904;2023-03-01T05:18:27;5.00;77.30
59572;DHT22;59406;45.602;11.904;2023-03-01T05:20:55;5.30;77.00
59572;DHT22;59406;45.602;11.904;2023-03-01T05:25:59;5.20;77.20
59572;DHT22;59406;45.602;11.904;2023-03-01T05:28:26;5.20;77.20
59572;DHT22;59406;45.602;11.904;2023-03-01T05:30:52;5.50;77.00
59572;DHT22;59406;45.602;11.904;2023-03-01T05:33:18;5.50;77.00
59572;DHT22;59406;45.602;11.904;2023-03-01T05:35:45;5.70;77.00
59572;DHT22;59406;45.602;11.904;2023-03-01T05:38:12;5.80;76.80
59572;DHT22;59406;45.602;11.904;2023-03-01T05:40:41;5.80;76.80
59572;DHT22;59406;45.602;11.904;2023-03-01T05:43:08;5.90;76.70
59572;DHT22;59406;45.602;11.904;2023-03-01T05:45:36;5.90;76.50
59572;DHT22;59406;45.602;11.904;2023-03-01T05:48:04;5.90;76.40
59572;DHT22;59406;45.602;11.904;2023-03-01T05:50:36;6.10;76.30
59572;DHT22;59406;45.602;11.904;2023-03-01T05:53:04;6.10;76.20
59572;DHT22;59406;45.602;11.904;2023-03-01T05:55:31;6.10;76.40
59572;DHT22;59406;45.602;11.904;2023-03-01T05:57:59;6.20;76.10
59572;DHT22;59406;45.602;11.904;2023-03-01T06:00:26;6.00;76.10
59572;DHT22;59406;45.602;11.904;2023-03-01T06:02:54;6.40;76.40
59572;DHT22;59406;45.602;11.904;2023-03-01T06:05:20;6.40;76.10
59572;DHT22;59406;45.602;11.904;2023-03-01T06:07:46;6.40;75.90
59572;DHT22;59406;45.602;11.904;2023-03-01T06:10:13;6.40;75.80
59572;DHT22;59406;45.602;11.904;2023-03-01T06:12:41;6.40;75.60
59572;DHT22;59406;45.602;11.904;2023-03-01T06:15:07;6.60;75.50
59572;DHT22;59406;45.602;11.904;2023-03-01T06:17:38;6.50;75.50
59572;DHT22;59406;45.602;11.904;2023-03-01T06:20:05;6.50;75.10
59572;DHT22;59406;45.602;11.904;2023-03-01T06:22:32;6.60;75.20
59572;DHT22;59406;45.602;11.904;2023-03-01T06:24:58;6.80;75.30
59572;DHT22;59406;45.602;11.904;2023-03-01T06:27:24;7.00;75.40
59572;DHT22;59406;45.602;11.904;2023-03-01T06:29:50;6.90;75.20
59572;DHT22;59406;45.602;11.904;2023-03-01T06:32:16;6.90;75.20
59572;DHT22;59406;45.602;11.904;2023-03-01T06:34:42;6.90;75.10
59572;DHT22;59406;45.602;11.904;2023-03-01T06:37:08;7.00;75.20
59572;DHT22;59406;45.602;11.904;2023-03-01T06:39:34;7.00;75.10
59572;DHT22;59406;45.602;11.904;2023-03-01T06:42:00;7.10;75.00
59572;DHT22;59406;45.602;11.904;2023-03-01T06:44:26;7.20;75.00
59572;DHT22;59406;45.602;11.904;2023-03-01T06:46:52;7.00;74.80
59572;DHT22;59406;45.602;11.904;2023-03-01T06:49:18;7.20;75.10
59572;DHT22;59406;45.602;11.904;2023-03-01T06:51:45;7.30;75.10
59572;DHT22;59406;45.602;11.904;2023-03-01T06:54:12;7.30;75.20
59572;DHT22;59406;45.602;11.904;2023-03-01T06:56:38;7.30;75.20
59572;DHT22;59406;45.602;11.904;2023-03-01T06:59:04;7.40;75.20
59572;DHT22;59406;45.602;11.904;2023-03-01T07:01:30;7.50;75.20
59572;DHT22;59406;45.602;11.904;2023-03-01T07:03:57;7.60;75.20
59572;DHT22;59406;45.602;11.904;2023-03-01T07:06:23;7.60;75.10
59572;DHT22;59406;45.602;11.904;2023-03-01T07:08:49;7.70;75.10
59572;DHT22;59406;45.602;11.904;2023-03-01T07:11:15;7.90;75.20
59572;DHT22;59406;45.602;11.904;2023-03-01T07:13:41;7.80;75.30
59572;DHT22;59406;45.602;11.904;2023-03-01T07:16:08;7.80;75.20
59572;DHT22;59406;45.602;11.904;2023-03-01T07:18:33;8.00;75.00
59572;DHT22;59406;45.602;11.904;2023-03-01T07:21:05;8.30;74.90
59572;DHT22;59406;45.602;11.904;2023-03-01T07:23:31;8.40;74.30
59572;DHT22;59406;45.602;11.904;2023-03-01T07:25:57;8.50;74.00
59572;DHT22;59406;45.602;11.904;2023-03-01T07:28:24;8.60;73.90
59572;DHT22;59406;45.602;11.904;2023-03-01T07:30:50;8.90;73.50
59572;DHT22;59406;45.602;11.904;2023-03-01T07:33:16;8.90;73.50
59572;DHT22;59406;45.602;11.904;2023-03-01T07:35:42;8.90;73.20
59572;DHT22;59406;45.602;11.904;2023-03-01T07:38:08;8.90;73.30
59572;DHT22;59406;45.602;11.904;2023-03-01T07:40:35;9.20;72.90
59572;DHT22;59406;45.602;11.904;2023-03-01T07:43:01;9.20;72.90
59572;DHT22;59406;45.602;11.904;2023-03-01T07:45:27;9.40;73.30
59572;DHT22;59406;45.602;11.904;2023-03-01T07:47:54;9.50;72.90
59572;DHT22;59406;45.602;11.904;2023-03-01T07:50:20;9.60;72.50
59572;DHT22;59406;45.602;11.904;2023-03-01T07:52:47;9.60;72.50
59572;DHT22;59406;45.602;11.904;2023-03-01T07:55:14;9.70;72.10
59572;DHT22;59406;45.602;11.904;2023-03-01T07:57:40;9.70;72.60
59572;DHT22;59406;45.602;11.904;2023-03-01T08:00:08;9.80;72.30
59572;DHT22;59406;45.602;11.904;2023-03-01T08:02:35;9.90;72.10
59572;DHT22;59406;45.602;11.904;2023-03-01T08:05:01;9.80;72.00
59572;DHT22;59406;45.602;11.904;2023-03-01T08:07:27;10.00;72.40
59572;DHT22;59406;45.602;11.904;2023-03-01T08:09:53;10.00;72.30
59572;DHT22;59406;45.602;11.904;2023-03-01T08:12:19;10.10;72.30
59572;DHT22;59406;45.602;11.904;2023-03-01T08:14:45;10.30;72.50
59572;DHT22;59406;45.602;11.904;2023-03-01T08:17:13;10.30;71.50
59572;DHT22;59406;45.602;11.904;2023-03-01T08:19:40;10.40;71.60
59572;DHT22;59406;45.602;11.904;2023-03-01T08:22:05;10.40;72.00
59572;DHT22;59406;45.602;11.904;2023-03-01T08:24:31;10.40;71.90
59572;DHT22;59406;45.602;11.904;2023-03-01T08:26:57;10.40;71.90
59572;DHT22;59406;45.602;11.904;2023-03-01T08:29:23;10.30;72.00
59572;DHT22;59406;45.602;11.904;2023-03-01T08:31:51;10.40;71.70
59572;DHT22;59406;45.602;11.904;2023-03-01T08:34:18;10.40;71.60
59572;DHT22;59406;45.602;11.904;2023-03-01T08:39:15;10.50;71.90
59572;DHT22;59406;45.602;11.904;2023-03-01T08:41:42;10.70;71.50
59572;DHT22;59406;45.602;11.904;2023-03-01T08:44:09;10.80;71.60
59572;DHT22;59406;45.602;11.904;2023-03-01T08:46:38;10.80;71.40
59572;DHT22;59406;45.602;11.904;2023-03-01T08:49:16;11.10;71.30
59572;DHT22;59406;45.602;11.904;2023-03-01T08:51:44;11.30;71.20
59572;DHT22;59406;45.602;11.904;2023-03-01T08:54:13;11.50;71.00
59572;DHT22;59406;45.602;11.904;2023-03-01T08:56:40;11.40;71.10
59572;DHT22;59406;45.602;11.904;2023-03-01T08:59:07;11.70;71.00
59572;DHT22;59406;45.602;11.904;2023-03-01T09:01:33;12.00;70.80
59572;DHT22;59406;45.602;11.904;2023-03-01T09:03:59;12.20;70.90
59572;DHT22;59406;45.602;11.904;2023-03-01T09:06:25;12.50;70.50
59572;DHT22;59406;45.602;11.904;2023-03-01T09:08:51;12.90;68.80
59572;DHT22;59406;45.602;11.904;2023-03-01T09:11:20;13.40;68.60
59572;DHT22;59406;45.602;11.904;2023-03-01T09:13:47;13.90;68.30
59572;DHT22;59406;45.602;11.904;2023-03-01T09:16:16;14.00;67.30
59572;DHT22;59406;45.602;11.904;2023-03-01T09:18:44;14.50;67.20
59572;DHT22;59406;45.602;11.904;2023-03-01T09:21:15;15.10;66.70
59572;DHT22;59406;45.602;11.904;2023-03-01T09:23:43;15.90;65.10
59572;DHT22;59406;45.602;11.904;2023-03-01T09:26:17;16.20;64.70
59572;DHT22;59406;45.602;11.904;2023-03-01T09:28:45;16.30;64.40
59572;DHT22;59406;45.602;11.904;2023-03-01T09:31:12;15.80;64.50
59572;DHT22;59406;45.602;11.904;2023-03-01T09:33:39;16.00;64.70
59572;DHT22;59406;45.602;11.904;2023-03-01T09:36:16;16.40;64.40
59572;DHT22;59406;45.602;11.904;2023-03-01T09:38:43;15.90;64.20
59572;DHT22;59406;45.602;11.904;2023-03-01T09:49:27;16.10;64.60
59572;DHT22;59406;45.602;11.904;2023-03-01T09:53:01;16.30;64.20
59572;DHT22;59406;45.602;11.904;2023-03-01T09:55:18;16.30;63.50
59572;DHT22;59406;45.602;11.904;2023-03-01T09:57:53;16.00;63.80
59572;DHT22;59406;45.602;11.904;2023-03-01T10:05:54;15.90;64.90
59572;DHT22;59406;45.602;11.904;2023-03-01T10:08:31;16.00;64.30
59572;DHT22;59406;45.602;11.904;2023-03-01T10:11:03;16.10;64.50
59572;DHT22;59406;45.602;11.904;2023-03-01T10:15:59;16.40;64.80
59572;DHT22;59406;45.602;11.904;2023-03-01T10:18:29;16.10;65.30
59572;DHT22;59406;45.602;11.904;2023-03-01T10:21:02;15.90;65.20
59572;DHT22;59406;45.602;11.904;2023-03-01T10:23:31;16.00;65.10
59572;DHT22;59406;45.602;11.904;2023-03-01T10:28:49;15.20;66.10
59572;DHT22;59406;45.602;11.904;2023-03-01T10:31:24;15.30;66.60
59572;DHT22;59406;45.602;11.904;2023-03-01T10:33:55;15.30;66.00
59572;DHT22;59406;45.602;11.904;2023-03-01T10:36:23;15.30;66.30
59572;DHT22;59406;45.602;11.904;2023-03-01T10:38:56;15.40;65.50
59572;DHT22;59406;45.602;11.904;2023-03-01T10:41:25;15.50;64.60
59572;DHT22;59406;45.602;11.904;2023-03-01T10:43:53;15.30;65.80
59572;DHT22;59406;45.602;11.904;2023-03-01T10:46:37;15.30;65.80
59572;DHT22;59406;45.602;11.904;2023-03-01T10:49:16;15.20;66.30
59572;DHT22;59406;45.602;11.904;2023-03-01T10:51:47;15.40;65.80
59572;DHT22;59406;45.602;11.904;2023-03-01T10:54:28;15.40;67.10
59572;DHT22;59406;45.602;11.904;2023-03-01T10:56:59;15.20;67.50
59572;DHT22;59406;45.602;11.904;2023-03-01T10:59:36;15.00;67.10
59572;DHT22;59406;45.602;11.904;2023-03-01T11:02:29;14.30;67.50
59572;DHT22;59406;45.602;11.904;2023-03-01T11:05:20;13.70;67.60
59572;DHT22;59406;45.602;11.904;2023-03-01T11:07:56;13.40;67.60
59572;DHT22;59406;45.602;11.904;2023-03-01T11:10:24;13.20;67.60
59572;DHT22;59406;45.602;11.904;2023-03-01T11:12:52;13.00;68.20
59572;DHT22;59406;45.602;11.904;2023-03-01T11:15:26;13.00;68.70
59572;DHT22;59406;45.602;11.904;2023-03-01T11:17:53;12.80;68.10
59572;DHT22;59406;45.602;11.904;2023-03-01T11:23:08;13.10;68.00
59572;DHT22;59406;45.602;11.904;2023-03-01T11:25:43;13.30;67.70
59572;DHT22;59406;45.602;11.904;2023-03-01T11:28:19;13.20;68.00
59572;DHT22;59406;45.602;11.904;2023-03-01T11:31:02;13.10;68.60
59572;DHT22;59406;45.602;11.904;2023-03-01T11:36:30;13.00;68.00
59572;DHT22;59406;45.602;11.904;2023-03-01T11:38:57;13.00;68.00
59572;DHT22;59406;45.602;11.904;2023-03-01T11:41:31;13.20;68.40
59572;DHT22;59406;45.602;11.904;2023-03-01T11:44:03;13.20;68.20
59572;DHT22;59406;45.602;11.904;2023-03-01T11:47:20;13.20;68.30
59572;DHT22;59406;45.602;11.904;2023-03-01T11:52:53;12.30;69.50
59572;DHT22;59406;45.602;11.904;2023-03-01T11:55:59;12.20;69.60
59572;DHT22;59406;45.602;11.904;2023-03-01T12:01:25;12.20;70.00
59572;DHT22;59406;45.602;11.904;2023-03-01T12:09:36;11.50;69.90
59572;DHT22;59406;45.602;11.904;2023-03-01T12:12:08;11.50;69.90
59572;DHT22;59406;45.602;11.904;2023-03-01T12:23:24;11.70;70.50
59572;DHT22;59406;45.602;11.904;2023-03-01T12:43:20;11.20;70.50
59572;DHT22;59406;45.602;11.904;2023-03-01T12:49:10;11.10;70.70
59572;DHT22;59406;45.602;11.904;2023-03-01T12:51:40;11.10;71.20
59572;DHT22;59406;45.602;11.904;2023-03-01T12:54:16;11.20;71.00
59572;DHT22;59406;45.602;11.904;2023-03-01T12:56:46;11.10;70.40
59572;DHT22;59406;45.602;11.904;2023-03-01T13:02:18;11.20;70.80
59572;DHT22;59406;45.602;11.904;2023-03-01T13:13:22;11.10;74.80
59572;DHT22;59406;45.602;11.904;2023-03-01T13:15:49;10.70;74.80
59572;DHT22;59406;45.602;11.904;2023-03-01T13:20:51;10.90;75.00
59572;DHT22;59406;45.602;11.904;2023-03-01T13:33:59;11.00;74.70
59572;DHT22;59406;45.602;11.904;2023-03-01T13:44:32;11.10;73.20
59572;DHT22;59406;45.602;11.904;2023-03-01T13:54:50;10.90;73.30
59572;DHT22;59406;45.602;11.904;2023-03-01T13:57:22;10.90;72.80
59572;DHT22;59406;45.602;11.904;2023-03-01T13:59:50;11.10;73.50
59572;DHT22;59406;45.602;11.904;2023-03-01T14:02:16;11.20;73.20
59572;DHT22;59406;45.602;11.904;2023-03-01T14:04:42;11.20;73.40
59572;DHT22;59406;45.602;11.904;2023-03-01T14:07:19;11.30;73.10
59572;DHT22;59406;45.602;11.904;2023-03-01T14:09:47;11.30;72.70
59572;DHT22;59406;45.602;11.904;2023-03-01T14:15:54;11.60;73.50
59572;DHT22;59406;45.602;11.904;2023-03-01T14:18:39;11.70;73.90
59572;DHT22;59406;45.602;11.904;2023-03-01T14:21:08;11.70;74.00
59572;DHT22;59406;45.602;11.904;2023-03-01T14:23:34;11.60;74.00
59572;DHT22;59406;45.602;11.904;2023-03-01T14:26:04;11.60;74.10
59572;DHT22;59406;45.602;11.904;2023-03-01T14:28:33;11.50;74.40
59572;DHT22;59406;45.602;11.904;2023-03-01T14:31:03;11.50;73.90
59572;DHT22;59406;45.602;11.904;2023-03-01T14:33:34;11.50;73.80
59572;DHT22;59406;45.602;11.904;2023-03-01T14:36:09;11.50;73.20
59572;DHT22;59406;45.602;11.904;2023-03-01T14:38:42;11.50;73.30
59572;DHT22;59406;45.602;11.904;2023-03-01T14:41:23;11.60;73.00
59572;DHT22;59406;45.602;11.904;2023-03-01T14:44:00;11.50;73.30
59572;DHT22;59406;45.602;11.904;2023-03-01T14:51:46;11.30;73.80
59572;DHT22;59406;45.602;11.904;2023-03-01T14:57:05;11.20;72.80
59572;DHT22;59406;45.602;11.904;2023-03-01T14:59:34;11.20;73.00
59572;DHT22;59406;45.602;11.904;2023-03-01T15:02:00;11.30;72.90
59572;DHT22;59406;45.602;11.904;2023-03-01T15:04:27;11.30;72.80
59572;DHT22;59406;45.602;11.904;2023-03-01T15:06:55;11.30;72.80
59572;DHT22;59406;45.602;11.904;2023-03-01T15:09:22;11.30;72.70
59572;DHT22;59406;45.602;11.904;2023-03-01T15:11:50;11.50;72.60
59572;DHT22;59406;45.602;11.904;2023-03-01T15:14:41;11.50;72.90
59572;DHT22;59406;45.602;11.904;2023-03-01T15:17:21;11.50;72.20
59572;DHT22;59406;45.602;11.904;2023-03-01T15:19:49;11.60;72.50
59572;DHT22;59406;45.602;11.904;2023-03-01T15:22:16;11.60;72.40
59572;DHT22;59406;45.602;11.904;2023-03-01T15:24:47;11.60;72.00
59572;DHT22;59406;45.602;11.904;2023-03-01T15:27:19;11.60;72.00
59572;DHT22;59406;45.602;11.904;2023-03-01T15:29:51;11.50;72.20
59572;DHT22;59406;45.602;11.904;2023-03-01T15:34:52;11.60;72.40
59572;DHT22;59406;45.602;11.904;2023-03-01T15:37:40;11.70;72.90
59572;DHT22;59406;45.602;11.904;2023-03-01T15:40:28;11.50;72.50
59572;DHT22;59406;45.602;11.904;2023-03-01T15:46:03;11.50;73.00
59572;DHT22;59406;45.602;11.904;2023-03-01T15:48:30;11.30;73.00
59572;DHT22;59406;45.602;11.904;2023-03-01T15:50:58;11.30;72.70
59572;DHT22;59406;45.602;11.904;2023-03-01T15:53:26;11.30;72.80
59572;DHT22;59406;45.602;11.904;2023-03-01T15:55:53;11.20;73.00
59572;DHT22;59406;45.602;11.904;2023-03-01T15:58:22;11.10;73.40
59572;DHT22;59406;45.602;11.904;2023-03-01T16:00:49;11.20;73.20
59572;DHT22;59406;45.602;11.904;2023-03-01T16:03:22;11.10;74.30
59572;DHT22;59406;45.602;11.904;2023-03-01T16:05:49;10.70;75.60
59572;DHT22;59406;45.602;11.904;2023-03-01T16:08:16;10.40;76.60
59572;DHT22;59406;45.602;11.904;2023-03-01T16:10:43;10.20;77.40
59572;DHT22;59406;45.602;11.904;2023-03-01T16:13:12;10.00;78.20
59572;DHT22;59406;45.602;11.904;2023-03-01T16:15:39;10.00;78.50
59572;DHT22;59406;45.602;11.904;2023-03-01T16:18:05;9.90;79.20
59572;DHT22;59406;45.602;11.904;2023-03-01T16:20:33;9.70;80.20
59572;DHT22;59406;45.602;11.904;2023-03-01T16:23:01;9.50;80.80
59572;DHT22;59406;45.602;11.904;2023-03-01T16:25:28;9.40;81.10
59572;DHT22;59406;45.602;11.904;2023-03-01T16:27:54;9.40;82.20
59572;DHT22;59406;45.602;11.904;2023-03-01T16:30:22;9.30;82.20
59572;DHT22;59406;45.602;11.904;2023-03-01T16:32:49;9.30;82.50
59572;DHT22;59406;45.602;11.904;2023-03-01T16:35:18;9.30;83.00
59572;DHT22;59406;45.602;11.904;2023-03-01T16:37:45;9.30;83.20
59572;DHT22;59406;45.602;11.904;2023-03-01T16:40:27;9.00;83.40
59572;DHT22;59406;45.602;11.904;2023-03-01T16:42:54;9.10;83.40
59572;DHT22;59406;45.602;11.904;2023-03-01T16:45:25;9.10;83.60
59572;DHT22;59406;45.602;11.904;2023-03-01T16:47:52;9.00;83.80
59572;DHT22;59406;45.602;11.904;2023-03-01T16:50:18;9.00;83.90
59572;DHT22;59406;45.602;11.904;2023-03-01T16:52:44;8.90;84.10
59572;DHT22;59406;45.602;11.904;2023-03-01T16:55:10;8.80;84.00
59572;DHT22;59406;45.602;11.904;2023-03-01T16:57:37;9.00;83.90
59572;DHT22;59406;45.602;11.904;2023-03-01T17:00:05;8.80;84.50
59572;DHT22;59406;45.602;11.904;2023-03-01T17:02:34;8.80;84.10
59572;DHT22;59406;45.602;11.904;2023-03-01T17:05:00;8.80;84.00
59572;DHT22;59406;45.602;11.904;2023-03-01T17:07:26;8.90;84.30
59572;DHT22;59406;45.602;11.904;2023-03-01T17:09:53;8.90;84.00
59572;DHT22;59406;45.602;11.904;2023-03-01T17:12:18;8.90;84.00
59572;DHT22;59406;45.602;11.904;2023-03-01T17:14:45;8.80;84.70
59572;DHT22;59406;45.602;11.904;2023-03-01T17:17:11;8.70;83.90
59572;DHT22;59406;45.602;11.904;2023-03-01T17:19:37;8.60;84.30
59572;DHT22;59406;45.602;11.904;2023-03-01T17:22:10;8.60;84.80
59572;DHT22;59406;45.602;11.904;2023-03-01T17:24:39;8.40;85.20
59572;DHT22;59406;45.602;11.904;2023-03-01T17:27:07;8.50;85.20
59572;DHT22;59406;45.602;11.904;2023-03-01T17:29:34;8.30;85.40
59572;DHT22;59406;45.602;11.904;2023-03-01T17:32:00;8.40;85.50
59572;DHT22;59406;45.602;11.904;2023-03-01T17:34:26;8.40;84.70
59572;DHT22;59406;45.602;11.904;2023-03-01T17:36:52;8.40;84.70
59572;DHT22;59406;45.602;11.904;2023-03-01T17:39:18;8.40;84.90
59572;DHT22;59406;45.602;11.904;2023-03-01T17:41:51;8.40;84.60
59572;DHT22;59406;45.602;11.904;2023-03-01T17:44:17;8.40;84.60
59572;DHT22;59406;45.602;11.904;2023-03-01T17:46:44;8.50;84.70
59572;DHT22;59406;45.602;11.904;2023-03-01T17:49:10;8.30;84.60
59572;DHT22;59406;45.602;11.904;2023-03-01T17:51:36;8.30;85.10
59572;DHT22;59406;45.602;11.904;2023-03-01T17:54:02;8.40;85.50
59572;DHT22;59406;45.602;11.904;2023-03-01T17:56:28;8.30;85.80
59572;DHT22;59406;45.602;11.904;2023-03-01T17:58:54;8.30;85.80